Terminal Aerodrome Forecast
Issued by NWS Jacksonville, FL

Home | Current Version | Previous Version | Text Only | Print | Product List | Glossary On
Versions: 1 2 3 4 5 6 7 8 9 10 11 12 13 14 15 16 17 18 19 20 21 22 23
000
FTUS42 KJAX 212327
TAFGNV
TAF
KGNV 212327Z 2200/2224 13006KT P6SM SCT050 BKN100
     FM220400 13006KT P6SM OVC050
     FM220800 11004KT 4SM BR VCSH BKN025 OVC040
     FM221000 11004KT 2SM -SHRA BR SCT015 OVC025
     FM221300 11007KT 3SM -SHRA BR OVC020=

USA.gov is the U.S. government's official web portal to all federal, state and local government web resources and services.